createdAt,value
2023-01-10T00:01:58.551Z,99827.53
2023-01-10T00:04:26.706Z,99826.94
2023-01-10T00:06:53.316Z,99831.69
2023-01-10T00:09:19.780Z,99840.56
2023-01-10T00:12:04.662Z,99846.16
2023-01-10T00:14:33.458Z,99842.88
2023-01-10T00:16:59.925Z,99852.78
2023-01-10T00:19:26.409Z,99844.97
2023-01-10T00:21:53.416Z,99859.41
2023-01-10T00:24:20.050Z,99864.19
2023-01-10T00:26:51.285Z,99868.50
2023-01-10T00:29:19.812Z,99871.63
2023-01-10T00:31:46.544Z,99871.84
2023-01-10T00:34:13.059Z,99870.25
2023-01-10T00:36:39.969Z,99882.09
2023-01-10T00:39:06.800Z,99880.72
2023-01-10T00:41:52.093Z,99887.13
2023-01-10T00:44:18.646Z,99890.59
2023-01-10T00:46:45.167Z,99887.13
2023-01-10T00:49:14.223Z,99899.47
2023-01-10T00:51:40.635Z,99895.16
2023-01-10T00:54:08.751Z,99895.16
2023-01-10T00:56:35.215Z,99907.94
2023-01-10T00:59:01.832Z,99900.50
2023-01-10T01:01:28.378Z,99913.06
2023-01-10T01:03:54.936Z,99917.63
2023-01-10T01:06:21.543Z,99927.53
2023-01-10T01:08:48.005Z,99937.44
2023-01-10T01:11:14.465Z,99937.44
2023-01-10T01:13:40.980Z,99947.09
2023-01-10T01:16:07.976Z,99959.91
2023-01-10T01:18:34.790Z,99967.13
2023-01-10T01:21:03.549Z,99968.50
2023-01-10T01:23:30.541Z,99974.53
2023-01-10T01:25:57.647Z,99982.97
2023-01-10T01:28:24.438Z,99985.66
2023-01-10T01:30:50.911Z,99983.78
2023-01-10T01:33:18.402Z,99986.28
2023-01-10T01:35:46.581Z,99991.03
2023-01-10T01:38:13.753Z,99996.84
2023-01-10T01:40:41.713Z,100005.09
2023-01-10T01:43:29.000Z,100012.16
2023-01-10T01:45:57.432Z,100019.91
2023-01-10T01:48:43.262Z,100040.84
2023-01-10T01:51:17.859Z,100048.34
2023-01-10T01:53:48.294Z,100045.88
2023-01-10T01:56:33.079Z,100057.00
2023-01-10T01:59:06.544Z,100060.69
2023-01-10T02:01:35.745Z,100061.16
2023-01-10T02:04:17.264Z,100065.19
2023-01-10T02:06:46.039Z,100068.16
2023-01-10T02:09:32.623Z,100072.63
2023-01-10T02:11:59.263Z,100080.13
2023-01-10T02:14:26.404Z,100077.22
2023-01-10T02:16:53.102Z,100087.94
2023-01-10T02:19:38.530Z,100083.16
2023-01-10T02:22:35.283Z,100089.47
2023-01-10T02:25:20.240Z,100100.31
2023-01-10T02:27:59.165Z,100088.69
2023-01-10T02:30:50.894Z,100094.69
2023-01-10T02:33:29.368Z,100102.38
2023-01-10T02:36:10.182Z,100100.09
2023-01-10T02:38:51.192Z,100108.94
2023-01-10T02:41:31.297Z,100108.72
2023-01-10T02:44:06.209Z,100111.84
2023-01-10T02:46:34.533Z,100118.91
2023-01-10T02:49:01.044Z,100115.84
2023-01-10T02:51:30.670Z,100111.09
2023-01-10T02:54:13.705Z,100117.03
2023-01-10T02:57:02.754Z,100116.41
2023-01-10T02:59:51.582Z,100123.19
2023-01-10T03:02:30.142Z,100133.34
2023-01-10T03:05:02.841Z,100144.06
2023-01-10T03:07:48.378Z,100144.44
2023-01-10T03:10:26.467Z,100153.13
2023-01-10T03:13:03.828Z,100160.56
2023-01-10T03:15:33.454Z,100159.19
2023-01-10T03:18:02.810Z,100164.88
2023-01-10T03:20:33.717Z,100172.31
2023-01-10T03:23:03.219Z,100183.47
2023-01-10T03:25:34.443Z,100186.16
2023-01-10T03:28:10.311Z,100199.34
2023-01-10T03:30:44.791Z,100199.72
2023-01-10T03:33:14.250Z,100203.84
2023-01-10T03:35:57.750Z,100201.81
2023-01-10T03:38:44.086Z,100205.06
2023-01-10T03:41:32.190Z,100218.09
2023-01-10T03:44:30.707Z,100217.47
2023-01-10T03:47:05.990Z,100224.38
2023-01-10T03:49:35.905Z,100231.72
2023-01-10T03:52:04.778Z,100242.25
2023-01-10T03:54:31.458Z,100242.66
2023-01-10T03:56:57.935Z,100253.38
2023-01-10T03:59:29.120Z,100256.66
2023-01-10T04:01:55.978Z,100261.25
2023-01-10T04:04:22.617Z,100261.66
2023-01-10T04:06:49.195Z,100270.31
2023-01-10T04:09:15.643Z,100281.03
2023-01-10T04:11:42.072Z,100284.75
2023-01-10T04:14:08.678Z,100281.25
2023-01-10T04:16:35.231Z,100288.44
2023-01-10T04:19:01.666Z,100277.72
2023-01-10T04:21:28.112Z,100279.59
2023-01-10T04:23:54.630Z,100280.63
2023-01-10T04:26:21.116Z,100287.63
2023-01-10T04:28:47.599Z,100284.13
2023-01-10T04:31:14.162Z,100285.19
2023-01-10T04:33:41.286Z,100305.75
2023-01-10T04:36:08.019Z,100313.00
2023-01-10T04:38:34.497Z,100309.56
2023-01-10T04:41:00.949Z,100326.59
2023-01-10T04:43:27.439Z,100327.19
2023-01-10T04:45:54.010Z,100324.28
2023-01-10T04:48:20.705Z,100330.50
2023-01-10T04:50:51.367Z,100338.50
2023-01-10T04:53:18.212Z,100345.31
2023-01-10T04:55:44.661Z,100352.13
2023-01-10T04:58:11.461Z,100343.44
2023-01-10T05:00:37.981Z,100353.03
2023-01-10T05:03:04.676Z,100349.41
2023-01-10T05:05:31.596Z,100360.81
2023-01-10T05:07:58.646Z,100357.19
2023-01-10T05:10:25.257Z,100368.72
2023-01-10T05:12:51.794Z,100371.59
2023-01-10T05:15:18.431Z,100367.44
2023-01-10T05:17:44.925Z,100370.75
2023-01-10T05:20:13.483Z,100366.63
2023-01-10T05:48:16.291Z,100420.59
2023-01-10T05:50:42.791Z,100427.19
2023-01-10T05:53:09.324Z,100428.84
2023-01-10T05:55:35.826Z,100439.56
2023-01-10T05:58:02.398Z,100433.38
2023-01-10T06:00:29.040Z,100441.00
2023-01-10T06:02:56.733Z,100458.16
2023-01-10T06:05:24.591Z,100461.44
2023-01-10T06:07:51.480Z,100461.47
2023-01-10T06:10:18.069Z,100468.28
2023-01-10T06:12:44.621Z,100480.47
2023-01-10T06:15:11.445Z,100485.41
2023-01-10T06:17:37.920Z,100496.97
2023-01-10T06:20:04.946Z,100503.56
2023-01-10T06:22:31.465Z,100504.41
2023-01-10T06:24:57.925Z,100505.63
2023-01-10T06:27:24.406Z,100510.56
2023-01-10T06:29:50.866Z,100509.34
2023-01-10T06:32:17.347Z,100514.31
2023-01-10T06:34:43.806Z,100514.72
2023-01-10T06:37:10.281Z,100521.94
2023-01-10T06:39:36.764Z,100518.84
2023-01-10T06:42:03.341Z,100523.75
2023-01-10T06:44:29.798Z,100532.84
2023-01-10T06:46:56.287Z,100534.69
2023-01-10T06:49:22.771Z,100534.91
2023-01-10T06:51:49.262Z,100536.97
2023-01-10T06:54:15.753Z,100537.16
2023-01-10T06:56:42.273Z,100546.47
2023-01-10T06:59:09.043Z,100549.31
2023-01-10T07:01:35.727Z,100551.81
2023-01-10T07:04:02.479Z,100563.34
2023-01-10T07:06:28.902Z,100555.53
2023-01-10T07:08:56.210Z,100566.84
2023-01-10T07:11:22.856Z,100572.59
2023-01-10T07:13:49.332Z,100574.47
2023-01-10T07:16:16.544Z,100572.81
2023-01-10T07:18:43.407Z,100568.66
2023-01-10T07:21:11.082Z,100577.31
2023-01-10T07:23:38.368Z,100574.81
2023-01-10T07:26:10.710Z,100586.00
2023-01-10T07:28:37.611Z,100585.19
2023-01-10T07:31:05.901Z,100586.63
2023-01-10T07:33:32.502Z,100580.63
2023-01-10T07:36:00.896Z,100587.88
2023-01-10T07:38:27.417Z,100588.88
2023-01-10T07:40:53.991Z,100598.97
2023-01-10T07:43:20.491Z,100593.03
2023-01-10T07:45:47.174Z,100597.16
2023-01-10T07:48:13.885Z,100608.66
2023-01-10T07:50:40.517Z,100599.81
2023-01-10T07:53:08.502Z,100602.09
2023-01-10T07:55:39.032Z,100612.78
2023-01-10T07:58:08.089Z,100617.34
2023-01-10T08:00:35.351Z,100626.19
2023-01-10T08:03:02.181Z,100622.50
2023-01-10T08:05:28.992Z,100627.84
2023-01-10T08:08:00.006Z,100620.41
2023-01-10T08:10:27.026Z,100616.94
2023-01-10T08:12:53.502Z,100615.06
2023-01-10T08:15:20.090Z,100626.41
2023-01-10T08:17:46.665Z,100626.41
2023-01-10T08:20:13.158Z,100635.25
2023-01-10T08:22:39.670Z,100631.78
2023-01-10T08:25:06.347Z,100635.06
2023-01-10T08:27:32.928Z,100635.06
2023-01-10T08:29:59.712Z,100638.38
2023-01-10T08:32:26.193Z,100641.06
2023-01-10T08:34:52.682Z,100645.16
2023-01-10T08:37:19.277Z,100656.09
2023-01-10T08:39:45.795Z,100656.91
2023-01-10T08:42:12.345Z,100665.97
2023-01-10T08:44:38.888Z,100673.19
2023-01-10T08:47:05.363Z,100679.56
2023-01-10T08:49:31.906Z,100666.81
2023-01-10T08:51:58.412Z,100679.19
2023-01-10T08:54:25.038Z,100688.25
2023-01-10T08:56:51.597Z,100699.38
2023-01-10T08:59:18.216Z,100697.13
2023-01-10T09:01:44.846Z,100701.44
2023-01-10T09:04:11.388Z,100680.03
2023-01-10T09:06:37.950Z,100670.13
2023-01-10T09:09:04.942Z,100677.13
2023-01-10T09:11:31.554Z,100677.97
2023-01-10T09:13:58.033Z,100669.31
2023-01-10T09:16:24.616Z,100671.78
2023-01-10T09:18:51.103Z,100685.63
2023-01-10T09:21:17.627Z,100687.66
2023-01-10T09:23:44.456Z,100684.16
2023-01-10T09:26:11.150Z,100692.84
2023-01-10T09:28:37.514Z,100695.13
2023-01-10T09:31:05.192Z,100707.06
2023-01-10T09:33:45.288Z,100707.06
2023-01-10T09:36:15.438Z,100718.41
2023-01-10T09:38:42.183Z,100721.91
2023-01-10T09:41:43.632Z,100735.13
2023-01-10T09:44:30.709Z,100740.72
2023-01-10T09:47:21.484Z,100736.56
2023-01-10T09:50:06.504Z,100736.16
2023-01-10T09:52:44.957Z,100736.56
2023-01-10T09:55:38.507Z,100737.38
2023-01-10T09:58:11.226Z,100739.03
2023-01-10T10:00:42.649Z,100745.03
2023-01-10T10:03:43.173Z,100751.66
2023-01-10T10:06:12.844Z,100753.09
2023-01-10T10:08:41.705Z,100752.44
2023-01-10T10:11:26.946Z,100745.03
2023-01-10T10:14:03.664Z,100743.59
2023-01-10T10:16:41.936Z,100747.72
2023-01-10T10:19:32.480Z,100744.84
2023-01-10T10:22:12.781Z,100742.75
2023-01-10T10:25:08.884Z,100739.47
2023-01-10T10:27:42.412Z,100744.00
2023-01-10T10:30:53.642Z,100746.50
2023-01-10T10:33:32.998Z,100740.72
2023-01-10T10:36:15.489Z,100737.00
2023-01-10T10:38:46.560Z,100746.06
2023-01-10T10:41:32.845Z,100748.34
2023-01-10T10:44:04.947Z,100743.59
2023-01-10T10:46:32.216Z,100740.28
2023-01-10T10:48:58.623Z,100741.75
2023-01-10T10:51:39.709Z,100742.38
2023-01-10T10:54:07.555Z,100747.53
2023-01-10T10:56:35.595Z,100741.13
2023-01-10T10:59:03.622Z,100747.09
2023-01-10T11:01:30.279Z,100751.22
2023-01-10T11:04:10.658Z,100746.06
2023-01-10T11:06:38.671Z,100755.56
2023-01-10T11:09:06.957Z,100751.66
2023-01-10T11:11:41.037Z,100758.03
2023-01-10T11:14:08.792Z,100760.50
2023-01-10T11:16:45.106Z,100768.56
2023-01-10T11:19:26.504Z,100777.03
2023-01-10T11:22:03.924Z,100772.09
2023-01-10T11:24:36.109Z,100771.25
2023-01-10T11:27:25.056Z,100763.00
2023-01-10T11:29:56.320Z,100772.09
2023-01-10T11:32:32.786Z,100762.59
2023-01-10T11:35:03.702Z,100761.75
2023-01-10T11:37:33.139Z,100769.63
2023-01-10T11:40:16.795Z,100761.97
2023-01-10T11:42:43.579Z,100756.59
2023-01-10T11:45:19.035Z,100752.66
2023-01-10T11:47:55.103Z,100744.22
2023-01-10T11:50:27.993Z,100741.72
2023-01-10T11:52:56.505Z,100734.91
2023-01-10T11:55:26.515Z,100752.44
2023-01-10T11:58:07.514Z,100741.72
2023-01-10T12:00:44.984Z,100746.47
2023-01-10T12:03:36.927Z,100737.38
2023-01-10T12:06:08.497Z,100736.75
2023-01-10T12:08:37.769Z,100744.81
2023-01-10T12:11:27.522Z,100739.44
2023-01-10T12:13:57.844Z,100744.78
2023-01-10T12:16:27.802Z,100749.75
2023-01-10T12:18:57.431Z,100744.00
2023-01-10T12:21:42.971Z,100737.38
2023-01-10T12:24:17.205Z,100748.91
2023-01-10T12:26:47.281Z,100744.38
2023-01-10T12:29:21.706Z,100748.50
2023-01-10T12:31:50.962Z,100749.34
2023-01-10T12:34:20.441Z,100748.09
2023-01-10T12:36:59.458Z,100748.88
2023-01-10T12:39:34.996Z,100741.03
2023-01-10T12:42:26.063Z,100757.97
2023-01-10T12:45:16.354Z,100750.97
2023-01-10T12:48:10.233Z,100751.34
2023-01-10T12:50:55.327Z,100752.19
2023-01-10T12:53:36.204Z,100758.81
2023-01-10T12:56:07.747Z,100758.63
2023-01-10T12:58:44.235Z,100764.22
2023-01-10T13:01:15.517Z,100764.41
2023-01-10T13:03:44.179Z,100761.91
2023-01-10T13:06:35.307Z,100760.84
2023-01-10T13:09:07.772Z,100751.38
2023-01-10T13:11:45.535Z,100760.88
2023-01-10T13:14:17.691Z,100752.00
2023-01-10T13:16:54.586Z,100753.84
2023-01-10T13:19:28.851Z,100759.22
2023-01-10T13:22:24.575Z,100752.38
2023-01-10T13:25:00.031Z,100739.38
2023-01-10T13:27:32.359Z,100743.50
2023-01-10T13:29:59.467Z,100743.50
2023-01-10T13:32:33.533Z,100741.25
2023-01-10T13:35:14.072Z,100730.69
2023-01-10T13:37:43.169Z,100737.75
2023-01-10T13:40:21.674Z,100745.34
2023-01-10T13:43:33.643Z,100744.69
2023-01-10T13:46:23.407Z,100737.84
2023-01-10T13:48:49.969Z,100739.78
2023-01-10T13:51:21.290Z,100731.06
2023-01-10T13:53:54.898Z,100736.88
2023-01-10T13:56:39.375Z,100724.44
2023-01-10T13:59:18.269Z,100725.50
2023-01-10T14:02:09.900Z,100719.06
2023-01-10T14:04:44.866Z,100719.28
2023-01-10T14:07:28.269Z,100715.75
2023-01-10T14:10:04.665Z,100730.66
2023-01-10T14:12:52.444Z,100733.94
2023-01-10T14:15:25.983Z,100744.09
2023-01-10T14:18:05.773Z,100751.72
2023-01-10T14:20:36.255Z,100750.31
2023-01-10T14:23:06.448Z,100749.28
2023-01-10T14:25:36.076Z,100748.88
2023-01-10T14:28:04.049Z,100748.50
2023-01-10T14:30:34.259Z,100743.94
2023-01-10T14:33:12.409Z,100750.09
2023-01-10T14:35:43.236Z,100738.97
2023-01-10T14:38:20.241Z,100728.63
2023-01-10T14:40:50.812Z,100727.41
2023-01-10T14:43:20.388Z,100720.81
2023-01-10T14:45:58.310Z,100738.56
2023-01-10T14:48:29.171Z,100731.97
2023-01-10T14:51:25.004Z,100719.16
2023-01-10T14:53:58.695Z,100720.38
2023-01-10T14:56:28.782Z,100715.03
2023-01-10T14:58:55.511Z,100706.78
2023-01-10T15:01:29.905Z,100709.19
2023-01-10T15:03:57.471Z,100705.53
2023-01-10T15:06:26.046Z,100726.66
2023-01-10T15:08:57.224Z,100714.84
2023-01-10T15:11:27.547Z,100708.06
2023-01-10T15:14:00.563Z,100717.38
2023-01-10T15:16:28.737Z,100713.41
2023-01-10T15:18:56.670Z,100709.09
2023-01-10T15:21:24.406Z,100705.56
2023-01-10T15:23:51.203Z,100708.88
2023-01-10T15:26:21.525Z,100698.34
2023-01-10T15:29:12.577Z,100700.63
2023-01-10T15:31:40.878Z,100696.91
2023-01-10T15:34:10.453Z,100688.88
2023-01-10T15:36:42.783Z,100676.28
2023-01-10T15:39:23.383Z,100684.53
2023-01-10T15:41:55.144Z,100688.69
2023-01-10T15:44:36.665Z,100687.88
2023-01-10T15:47:03.413Z,100685.38
2023-01-10T15:49:30.716Z,100686.97
2023-01-10T15:51:58.149Z,100683.53
2023-01-10T15:54:24.620Z,100678.97
2023-01-10T15:56:52.909Z,100666.00
2023-01-10T15:59:23.327Z,100674.25
2023-01-10T16:01:55.908Z,100670.13
2023-01-10T16:04:23.125Z,100670.16
2023-01-10T16:06:55.047Z,100675.28
2023-01-10T16:09:22.971Z,100674.06
2023-01-10T16:12:11.736Z,100669.72
2023-01-10T16:14:38.317Z,100670.75
2023-01-10T16:17:05.831Z,100668.72
2023-01-10T16:19:32.600Z,100671.19
2023-01-10T16:21:59.833Z,100661.88
2023-01-10T16:24:35.589Z,100661.91
2023-01-10T16:27:06.057Z,100657.16
2023-01-10T16:43:29.078Z,100644.16
2023-01-10T16:46:00.291Z,100645.41
2023-01-10T16:48:29.166Z,100643.75
2023-01-10T16:51:16.117Z,100641.72
2023-01-10T16:53:42.597Z,100637.16
2023-01-10T16:56:14.110Z,100628.09
2023-01-10T16:58:40.664Z,100636.34
2023-01-10T17:01:13.810Z,100639.63
2023-01-10T17:03:40.466Z,100621.88
2023-01-10T17:06:07.196Z,100622.72
2023-01-10T17:08:33.589Z,100607.66
2023-01-10T17:11:02.843Z,100602.09
2023-01-10T17:13:33.544Z,100599.63
2023-01-10T17:16:00.548Z,100600.06
2023-01-10T17:18:28.700Z,100609.53
2023-01-10T17:20:57.030Z,100601.50
2023-01-10T17:23:24.437Z,100589.50
2023-01-10T17:25:59.096Z,100586.03
2023-01-10T17:28:25.549Z,100580.66
2023-01-10T17:30:52.314Z,100593.03
2023-01-10T17:33:18.673Z,100576.53
2023-01-10T17:35:45.337Z,100570.75
2023-01-10T17:38:15.136Z,100573.66
2023-01-10T17:40:43.385Z,100569.94
2023-01-10T17:43:11.360Z,100561.09
2023-01-10T17:45:42.642Z,100562.31
2023-01-10T17:48:09.424Z,100549.94
2023-01-10T17:50:36.445Z,100563.13
2023-01-10T17:53:02.940Z,100551.81
2023-01-10T17:55:29.433Z,100555.31
2023-01-10T17:57:56.368Z,100548.28
2023-01-10T18:00:22.965Z,100555.94
2023-01-10T18:02:49.536Z,100539.88
2023-01-10T18:05:16.235Z,100533.66
2023-01-10T18:07:42.691Z,100549.75
2023-01-10T18:10:09.813Z,100531.00
2023-01-10T18:12:36.656Z,100522.34
2023-01-10T18:15:04.259Z,100554.28
2023-01-10T18:17:30.734Z,100529.97
2023-01-10T18:19:57.224Z,100526.06
2023-01-10T18:22:42.455Z,100534.91
2023-01-10T18:25:09.150Z,100530.38
2023-01-10T18:27:36.242Z,100527.06
2023-01-10T18:30:03.794Z,100523.81
2023-01-10T18:32:32.466Z,100519.69
2023-01-10T18:34:59.952Z,100516.38
2023-01-10T18:37:26.559Z,100508.13
2023-01-10T18:39:53.145Z,100510.59
2023-01-10T18:42:19.631Z,100511.44
2023-01-10T18:44:46.105Z,100497.19
2023-01-10T18:47:12.561Z,100494.50
2023-01-10T18:49:39.031Z,100500.50
2023-01-10T18:52:06.497Z,100494.50
2023-01-10T18:54:33.124Z,100480.09
2023-01-10T18:56:59.583Z,100485.44
2023-01-10T18:59:26.113Z,100474.31
2023-01-10T19:01:52.712Z,100477.84
2023-01-10T19:04:19.206Z,100472.47
2023-01-10T19:06:46.167Z,100480.09
2023-01-10T19:09:12.690Z,100487.91
2023-01-10T19:11:39.163Z,100506.88
2023-01-10T19:14:05.724Z,100489.38
2023-01-10T19:16:32.466Z,100478.03
2023-01-10T19:19:00.792Z,100499.03
2023-01-10T19:21:30.303Z,100486.69
2023-01-10T19:24:01.331Z,100486.69
2023-01-10T19:26:28.019Z,100494.31
2023-01-10T19:28:54.593Z,100485.66
2023-01-10T19:31:24.769Z,100482.16
2023-01-10T19:33:51.788Z,100486.28
2023-01-10T19:36:20.250Z,100478.84
2023-01-10T19:38:47.471Z,100477.19
2023-01-10T19:41:14.506Z,100476.97
2023-01-10T19:43:41.020Z,100472.25
2023-01-10T19:46:08.780Z,100464.00
2023-01-10T19:48:38.074Z,100471.63
2023-01-10T19:51:07.009Z,100481.72
2023-01-10T19:53:35.097Z,100474.13
2023-01-10T19:56:04.487Z,100456.16
2023-01-10T19:58:31.905Z,100471.00
2023-01-10T20:01:05.833Z,100457.00
2023-01-10T20:03:33.312Z,100454.94
2023-01-10T20:06:06.369Z,100438.44
2023-01-10T20:08:32.836Z,100451.63
2023-01-10T20:11:05.413Z,100430.19
2023-01-10T20:13:33.049Z,100413.53
2023-01-10T20:16:00.007Z,100404.06
2023-01-10T20:18:27.095Z,100415.78
2023-01-10T20:20:53.544Z,100421.38
2023-01-10T20:23:22.543Z,100406.97
2023-01-10T20:25:59.772Z,100413.94
2023-01-10T20:28:26.547Z,100389.00
2023-01-10T20:30:53.615Z,100386.69
2023-01-10T20:33:26.662Z,100387.16
2023-01-10T20:35:58.355Z,100372.53
2023-01-10T20:38:27.741Z,100376.47
2023-01-10T20:41:02.057Z,100367.22
2023-01-10T20:43:28.815Z,100356.91
2023-01-10T20:45:55.177Z,100383.47
2023-01-10T20:48:22.633Z,100334.25
2023-01-10T20:50:49.161Z,100350.75
2023-01-10T20:53:15.933Z,100335.91
2023-01-10T20:55:43.219Z,100357.53
2023-01-10T20:58:10.837Z,100326.03
2023-01-10T21:00:37.325Z,100319.03
2023-01-10T21:03:04.014Z,100312.00
2023-01-10T21:05:30.726Z,100314.69
2023-01-10T21:07:57.233Z,100310.78
2023-01-10T21:10:23.923Z,100296.38
2023-01-10T21:12:50.452Z,100282.34
2023-01-10T21:15:16.993Z,100279.72
2023-01-10T21:17:43.530Z,100267.56
2023-01-10T21:20:11.501Z,100282.19
2023-01-10T21:22:38.031Z,100272.31
2023-01-10T21:25:04.897Z,100247.41
2023-01-10T21:27:31.936Z,100247.34
2023-01-10T21:29:58.776Z,100249.88
2023-01-10T21:32:25.265Z,100247.97
2023-01-10T21:34:51.839Z,100238.56
2023-01-10T21:37:18.557Z,100242.47
2023-01-10T21:39:45.100Z,100241.47
2023-01-10T21:42:30.867Z,100229.72
2023-01-10T21:44:57.804Z,100223.56
2023-01-10T21:47:24.403Z,100222.72
2023-01-10T21:49:51.605Z,100212.03
2023-01-10T21:52:18.526Z,100233.66
2023-01-10T21:54:45.113Z,100221.94
2023-01-10T21:57:11.656Z,100213.25
2023-01-10T21:59:40.887Z,100214.09
2023-01-10T22:02:12.237Z,100202.97
2023-01-10T22:04:38.806Z,100200.72
2023-01-10T22:07:05.322Z,100193.28
2023-01-10T22:09:31.958Z,100188.38
2023-01-10T22:11:58.409Z,100189.41
2023-01-10T22:14:24.946Z,100190.41
2023-01-10T22:16:51.437Z,100188.78
2023-01-10T22:19:17.905Z,100175.00
2023-01-10T22:21:44.422Z,100205.84
2023-01-10T22:24:12.029Z,100170.44
2023-01-10T22:26:39.144Z,100168.78
2023-01-10T22:29:05.628Z,100183.00
2023-01-10T22:31:32.202Z,100178.25
2023-01-10T22:33:58.746Z,100182.00
2023-01-10T22:36:25.212Z,100193.09
2023-01-10T22:38:51.767Z,100193.28
2023-01-10T22:41:20.418Z,100192.25
2023-01-10T22:43:47.931Z,100188.97
2023-01-10T22:46:15.944Z,100179.09
2023-01-10T22:48:43.478Z,100206.88
2023-01-10T22:51:09.940Z,100186.91
2023-01-10T22:53:36.480Z,100167.97
2023-01-10T22:56:05.066Z,100184.84
2023-01-10T22:58:31.874Z,100160.16
2023-01-10T23:00:58.301Z,100134.75
2023-01-10T23:03:25.285Z,100147.38
2023-01-10T23:05:59.087Z,100145.94
2023-01-10T23:08:26.859Z,100160.94
2023-01-10T23:10:54.426Z,100152.09
2023-01-10T23:13:22.511Z,100171.66
2023-01-10T23:15:59.117Z,100139.72
2023-01-10T23:18:26.628Z,100124.72
2023-01-10T23:20:53.447Z,100110.09
2023-01-10T23:23:20.172Z,100153.63
2023-01-10T23:25:46.756Z,100104.56
2023-01-10T23:28:13.370Z,100109.06
2023-01-10T23:30:40.868Z,100113.81
